KADM/ADM METAR and TAF weather

Enter ICAO airport designator
Station Type Date Time Source
KADM METAR 2022/07/01 00:50 UTC NOAA

KADM 010050Z 12008KT 10SM CLR 33/17 A2992


Station Type Date Time Source
KADM Decoded METAR 2022/07/01 00:50 UTC NOAA

Ardmore, Ardmore Municipal Airport, OK, United States (KADM) 34-18-11N 097-01-10W
Jun 30, 2022 - 08:50 PM EDT / 2022.07.01 0050 UTC
Wind: from the ESE (120 degrees) at 9 MPH (8 KT):0
Visibility: 10 mile(s):0
Sky conditions: clear
Temperature: 91 F (33 C)
Dew Point: 62 F (17 C)
Relative Humidity: 38%
Pressure (altimeter): 29.92 in. Hg (1013 hPa)
ob: KADM 010050Z 12008KT 10SM CLR 33/17 A2992
cycle: 1

Station Type Date Time Source
KADM TAF UTC NOAA

Error!

Example: see airport list